Welcome to our Virtual Airline
Sign-in:

Flight KHK-CZST-C

  • Submitted By: Karl-Heinz Klotz
  • Departure Airport: Stewart (CZST)
  • Arrival Airport: Stewart (CZST)
  • Aircraft: PIPER J-3 (N004MM-TW )
  • Flight Time: 00.12.51
  • Date Submitted: 21/05/14
  • Route: DIRECT
  • Status: Accepted
Flight Details
Gross Revenue:
(0 load / $ 0.00 per unit
$ 0.00
Fuel Cost:
(0.453592 fuel used @ 0 / unit)
$ 0.00

Additional Log Information:

View Log

[16:41] ----- Flight Opened -----
[16:41] Cigar Box - 1.1.4.0
[16:41] FS:
[16:41] FSUIPC: v7,1
[16:41] Flight Number: KHK-CZST-CZST
[16:41] FS Aircraft: Top Rudder 103 Solo Asobo Small Wheel
[16:41] FS Model: $$:Top Rudder 103 Solo
[16:41] FS Type: $$:Top Rudder Aircraft
[16:41] Departure: CZST
[16:41] Arrival: CZST
[16:41] Flight Level: 3000
[16:41] Flight Type: H
[16:41] Passengers: 0
[16:41] FOB: 12 lbs
[16:41] Gate: 1 - CZST
[16:41] NOTE: Parking Brake Ignored
[16:41] Crash Detection: Disabled
[16:41] Crash Detection Aircraft: Disabled
[16:41] Engines: 1 Piston
[16:41] NOTE: Boarding has started
[16:41] Flaps: Position 0
[16:41] Main Door Closed
[16:41] COM1: 124.85
[16:41] COM2: 124.85
[16:41] Transponder: 7000
[16:41] NAV1: 110.50
[16:41] NAV2: 110.50
[16:41] ADF1: 890.0
[16:41] ADF2: 890.0
[16:41] Navigation Mode: NAV
[16:41] Engine 1: Started
[16:41] NOTE: Taxi started
[16:41] NOTE: ----- TAKE OFF -----
[16:41] GS: 31 knots
[16:41] TAS: 32 knots
[16:41] IAS: 32 knots
[16:41] VS: 5 fpm
[16:41] FOB: 12 lbs
[16:41] Heading: 181°
[16:41] Pitch: 2°
[16:41] Bank: 1°
[16:41] Aircraft Weight: 436,93 lbs
[16:41] Nearest Airport: CZST
[16:41] Distance: 0,13 miles
[16:41] Runway: 18 - CZST
[16:41] Ground Surface: Asphalt
[16:41] Ground Condition: Normal
[16:41] NOTE: Weather Report
[16:41] Wind Heading: 248°
[16:41] Wind Speed: 1 knots
[16:41] OAT: 14° C
[16:41] TAT: 15° C
[16:41] Precipitation: None
[16:41] Dew Point: 0° C
[16:41] Visibility: 84 miles
[16:41] METAR: CZST 141400Z VRB02KT 15SM FEW035 OVC065 OVC080 08/05 A3025 RMK SC2SC5AC1 SLP245
[16:41] NOTE: Climb started
[16:42] View Mode: Virtual Cockpit
[16:44] Stall: Encountered
[16:44] GS: 15 knots
[16:44] TAS: 18 knots
[16:44] IAS: 18 knots
[16:44] VS: -63 fpm
[16:44] Stall: Corrected
[16:44] GS: 13 knots
[16:44] TAS: 16 knots
[16:44] IAS: 17 knots
[16:44] VS: -98 fpm
[16:44] NOTE: ----- LANDED -----
[16:44] Landing Rate: -91,50 fpm
[16:44] GS: 11 knots
[16:44] TAS: 14 knots
[16:44] IAS: 15 knots
[16:44] VS: -86 fpm
[16:44] FOB: 12 lbs
[16:44] Heading: 186°
[16:44] Pitch: 13°
[16:44] Bank: -2°
[16:44] Aircraft Weight: 435,94 lbs
[16:44] Nearest Airport: CZST
[16:44] Distance: 0,30 miles
[16:44] Runway: 18 - CZST
[16:44] Ground Surface: Asphalt
[16:44] Ground Condition: Normal
[16:44] NOTE: Weather Report
[16:44] Wind Heading: 226°
[16:44] Wind Speed: 2 knots
[16:44] OAT: 15° C
[16:44] TAT: 15° C
[16:44] Precipitation: None
[16:44] Dew Point: 0° C
[16:44] Visibility: 84 miles
[16:44] METAR: CZST 141400Z VRB02KT 15SM FEW035 OVC065 OVC080 08/05 A3025 RMK SC2SC5AC1 SLP245
[16:44] View Mode: Virtual Cockpit
[16:44] NOTE: Taxi started
[16:46] View Mode: Virtual Cockpit
[16:49] NOTE: ----- LANDED -----
[16:49] Landing Rate: -121,49 fpm
[16:49] GS: 17 knots
[16:49] TAS: 19 knots
[16:49] IAS: 19 knots
[16:49] VS: -113 fpm
[16:49] FOB: 11 lbs
[16:49] Heading: 170°
[16:49] Pitch: 9°
[16:49] Bank: 0°
[16:49] Aircraft Weight: 435,51 lbs
[16:49] Nearest Airport: BQST
[16:49] Distance: 0,16 miles
[16:49] Runway: 18 - CZST
[16:49] Ground Surface:
[16:49] Ground Condition: Normal
[16:49] NOTE: Weather Report
[16:49] Wind Heading: 247°
[16:49] Wind Speed: 2 knots
[16:49] OAT: 15° C
[16:49] TAT: 15° C
[16:49] Precipitation: None
[16:49] Dew Point: 0° C
[16:49] Visibility: 84 miles
[16:49] METAR: CZST 141400Z VRB02KT 15SM FEW035 OVC065 OVC080 08/05 A3025 RMK SC2SC5AC1 SLP245
[16:49] View Mode: Virtual Cockpit
[16:51] View Mode: Virtual Cockpit
[16:52] Stall: Encountered
[16:52] GS: 21 knots
[16:52] TAS: 20 knots
[16:52] IAS: 20 knots
[16:52] VS: -197 fpm
[16:53] NOTE: ----- LANDED -----
[16:53] Landing Rate: -186,85 fpm
[16:53] GS: 15 knots
[16:53] TAS: 17 knots
[16:53] IAS: 17 knots
[16:53] VS: -187 fpm
[16:53] FOB: 11 lbs
[16:53] Heading: 9°
[16:53] Pitch: 4°
[16:53] Bank: 0°
[16:53] Aircraft Weight: 434,71 lbs
[16:53] Nearest Airport: CZST
[16:53] Distance: 0,08 miles
[16:53] Runway: ???
[16:53] Ground Surface: Asphalt
[16:53] Ground Condition: Normal
[16:53] NOTE: Weather Report
[16:53] Wind Heading: 252°
[16:53] Wind Speed: 2 knots
[16:53] OAT: 14° C
[16:53] TAT: 14° C
[16:53] Precipitation: None
[16:53] Dew Point: 0° C
[16:53] Visibility: 84 miles
[16:53] METAR: CZST 141400Z VRB02KT 15SM FEW035 OVC065 OVC080 08/05 A3025 RMK SC2SC5AC1 SLP245
[16:53] View Mode: Virtual Cockpit
[16:54] Engine 1: Stopped
[16:54] Gate: n/a
[16:54] NOTE: Flight Completed
[16:54] FS Aircraft: Top Rudder 103 Solo Asobo Small Wheel
[16:54] FS Model: $$:Top Rudder 103 Solo
[16:54] FS Type: $$:Top Rudder Aircraft
[16:54] FOB: 11 lbs
[16:54] Fuel Used: 1 lbs
[16:54] Flight Time: 00:12:51
[16:54] Flight Time (Dawn): 00:00:00
[16:54] Flight Time (Day): 00:12:51
[16:54] Flight Time (Dusk): 00:00:00
[16:54] Flight Time (Night): 00:00:00
[16:54] Total Landings: 3
[16:54] MaxSim Rate: 1x
[16:54] Cigar Box - 1.1.4.0
[16:54] ----- Flight Closed -----

Route Map